createdAt,value
2022-10-06T00:01:15.176Z,75.84
2022-10-06T00:04:09.993Z,75.80
2022-10-06T00:07:03.563Z,75.74
2022-10-06T00:09:56.724Z,75.58
2022-10-06T00:12:53.116Z,75.73
2022-10-06T00:15:46.234Z,75.98
2022-10-06T00:18:40.286Z,76.08
2022-10-06T00:21:34.152Z,75.95
2022-10-06T00:24:27.514Z,76.23
2022-10-06T00:27:21.225Z,76.01
2022-10-06T00:30:19.674Z,76.42
2022-10-06T00:33:17.939Z,76.23
2022-10-06T00:36:13.733Z,76.35
2022-10-06T00:39:07.831Z,76.42
2022-10-06T00:42:02.022Z,76.29
2022-10-06T00:45:00.524Z,77.03
2022-10-06T00:47:58.726Z,76.86
2022-10-06T00:50:56.604Z,76.65
2022-10-06T00:53:50.692Z,76.75
2022-10-06T00:56:44.395Z,76.80
2022-10-06T00:59:39.747Z,76.86
2022-10-06T01:12:15.534Z,78.97
2022-10-06T04:14:10.290Z,76.14
2022-10-06T04:23:21.257Z,75.69
2022-10-06T04:45:09.523Z,76.12
2022-10-06T06:29:18.237Z,74.85
2022-10-06T07:11:23.468Z,73.34
2022-10-06T07:15:44.667Z,72.79
2022-10-06T07:21:40.946Z,73.31
2022-10-06T07:25:58.159Z,72.50
2022-10-06T07:30:15.522Z,72.77
2022-10-06T07:34:02.964Z,72.33
2022-10-06T07:37:57.150Z,72.11
2022-10-06T07:41:52.244Z,71.58
2022-10-06T07:45:41.150Z,71.64
2022-10-06T07:49:38.139Z,71.06
2022-10-06T07:57:44.299Z,71.34
2022-10-06T08:05:55.159Z,71.30
2022-10-06T08:09:51.971Z,71.74
2022-10-06T08:13:57.896Z,71.08
2022-10-06T08:17:54.816Z,70.28
2022-10-06T08:21:52.309Z,70.19
2022-10-06T08:26:05.114Z,70.45
2022-10-06T08:29:59.071Z,67.37
2022-10-06T08:34:02.002Z,69.30
2022-10-06T08:42:17.307Z,68.40
2022-10-06T08:46:31.870Z,66.96
2022-10-06T08:50:29.249Z,12.35
2022-10-06T08:54:25.795Z,-1.00
2022-10-06T08:58:20.268Z,-1.00
2022-10-06T09:02:17.058Z,-1.00
2022-10-06T09:06:08.507Z,-1.00
2022-10-06T09:10:04.936Z,-1.00
2022-10-06T09:18:14.967Z,-1.00
2022-10-06T09:22:11.739Z,-1.00
2022-10-06T09:26:09.630Z,-1.00
2022-10-06T09:37:01.319Z,53.99
2022-10-06T09:40:49.389Z,56.28
2022-10-06T09:44:40.452Z,52.26
2022-10-06T09:48:32.482Z,54.19
2022-10-06T09:52:38.701Z,52.06
2022-10-06T09:56:32.296Z,52.46
2022-10-06T10:00:16.464Z,53.96
2022-10-06T10:04:19.897Z,51.48
2022-10-06T10:08:32.468Z,51.99
2022-10-06T10:12:25.411Z,50.87
2022-10-06T10:16:15.741Z,50.51
2022-10-06T10:20:07.248Z,49.79
2022-10-06T10:28:30.596Z,48.47
2022-10-06T10:32:31.638Z,48.49
2022-10-06T10:36:25.557Z,49.83
2022-10-06T10:45:00.798Z,48.02
2022-10-06T10:49:00.492Z,46.03
2022-10-06T10:52:49.655Z,47.99
2022-10-06T10:56:43.548Z,47.20
2022-10-06T11:00:38.961Z,48.95
2022-10-06T11:04:25.253Z,48.50
2022-10-06T11:08:17.415Z,48.48
2022-10-06T11:12:11.333Z,49.24
2022-10-06T11:16:08.266Z,49.39
2022-10-06T11:20:41.218Z,49.58
2022-10-06T11:24:41.635Z,49.92
2022-10-06T11:28:40.140Z,49.31
2022-10-06T11:37:00.894Z,50.91
2022-10-06T11:40:56.151Z,51.16
2022-10-06T11:45:06.444Z,51.49
2022-10-06T11:52:09.166Z,51.75
2022-10-06T11:56:03.007Z,51.96
2022-10-06T11:59:54.979Z,52.02
2022-10-06T12:08:38.365Z,52.28
2022-10-06T12:13:05.825Z,52.44
2022-10-06T12:17:12.619Z,51.90
2022-10-06T12:25:36.297Z,52.26
2022-10-06T12:29:24.760Z,52.57
2022-10-06T12:33:25.163Z,52.12
2022-10-06T12:37:19.075Z,52.04
2022-10-06T12:41:41.508Z,51.74
2022-10-06T12:45:45.863Z,52.14
2022-10-06T12:50:01.870Z,53.10
2022-10-06T12:58:28.275Z,52.98
2022-10-06T13:02:17.896Z,52.77
2022-10-06T13:10:24.363Z,51.91
2022-10-06T13:14:13.706Z,51.84
2022-10-06T13:22:51.950Z,52.15
2022-10-06T13:33:00.380Z,53.05
2022-10-06T13:50:25.379Z,53.99
2022-10-06T13:54:40.432Z,54.15
2022-10-06T14:03:11.612Z,55.07
2022-10-06T14:20:14.534Z,56.21
2022-10-06T14:33:40.451Z,57.59
2022-10-06T14:46:30.294Z,58.72
2022-10-06T14:52:20.093Z,59.24
2022-10-06T15:01:26.551Z,59.66
2022-10-06T15:09:36.688Z,60.03
2022-10-06T15:23:21.686Z,60.96
2022-10-06T15:36:46.138Z,61.79
2022-10-06T15:40:56.234Z,62.00
2022-10-06T15:49:33.569Z,62.38
2022-10-06T15:53:30.047Z,62.60
2022-10-06T15:57:24.149Z,62.65
2022-10-06T16:14:17.488Z,63.24
2022-10-06T16:18:24.266Z,63.31
2022-10-06T16:22:21.226Z,63.29
2022-10-06T16:26:18.037Z,63.07
2022-10-06T16:40:04.429Z,63.65
2022-10-06T16:49:22.492Z,64.09
2022-10-06T17:04:06.494Z,64.28
2022-10-06T17:08:46.289Z,64.64
2022-10-06T17:22:34.037Z,65.14
2022-10-06T17:31:35.963Z,65.54
2022-10-06T19:03:07.695Z,68.10
2022-10-06T19:14:42.843Z,68.29
2022-10-06T23:31:26.436Z,72.54
